Terminal Aerodrome Forecast
Issued by NWS

Home | Current Version | Previous Version | Text Only | Print | Product List | Glossary On
Versions: 1 2 3 4 5 6 7 8 9 10 11 12 13 14 15 16 17 18 19 20 21
000
FTUS44 KHGX 232317 AAB
TAFCXO
TAF AMD
KCXO 232317Z 2323/2418 VRB06KT P6SM VCTS SCT035CB
      TEMPO 2323/2324 VRB15G25KT 1SM -TSRA
     FM240100 10005KT P6SM SCT250
     FM241300 05003KT P6SM SCT030
     FM241700 08006KT P6SM SCT030=

USA.gov is the U.S. government's official web portal to all federal, state and local government web resources and services.